Accueil
METAR-TAF:

METAR-TAF

Aéroports :

Guaratinguetá, São Paulo, Brésil

latitude: 22-47S, longitude: 045-12W, altitude: 537 m

Observation

Le bulletin a été fait il y a 9 heures et 15 minutes, à 22:00 UTC
Vent 2 kt de ouest/nord-ouest
Température 19°C
Humidité 73%
Pression 1018 hPa
Visibilité: 5000 m
brume sèche

METAR: SBGW 022200Z 29002KT 5000 HZ NSC 19/14 Q1018

Heure: 04:15 (07:15 UTC)

Prévision

Le bulletin a été fait il y a 10 heures et 15 minutes, à 21:00 UTC
Prévision valable du 03 à 00 UTC au 03 à 12 UTC
Vent kt de nord
Visibilité: 5000 m
brume sèche
Evoluant progressivement
du 03 à 05 UTC au 03 à 07 UTC
Visibilité: 4000 m
brume
Evoluant progressivement
du 03 à 09 UTC au 03 à 11 UTC
Visibilité: 7000 m

TAF: SBGW 022100Z 0300/0312 00000KT 5000 HZ NSC TN06/0306Z TX16/0312Z BECMG 0305/0307 4000 BR NSC BECMG 0309/0311 7000 NSC RMK PDY

Observations et prévisions météorologiques de plus de 4000 aéroports (messages METAR et TAF).

Les stations disponibles sont représentées par des disques jaunes et rouges sur la carte.

Passer la souris dessus pour voir le nom de la station.

Cliquer dessus pour voir les observations et prévisions météorologiques.

Pour changer de carte: cliquez sur les boutons verts avec une croix noire pour zoomer, sur le bouton vert avec un tiret pour effectuer un zoom arrière, ou sur les flèches vertes pour les cartes adjacentes.


METAR-TAF: